Time;durP1;ratioP1;P1;durP2;ratioP2;P2;SDS_P1;SDS_P2;PMS_P1;PMS_P2;Temp;Humidity;BMP_temperature;BMP_pressure;BME280_temperature;BME280_humidity;BME280_pressure;Samples;Min_cycle;Max_cycle;Signal;HPM_P1;HPM_P2
2023/04/12 00:02:07;;;;;;;;;;;;;;;14.40;39.83;100375.56;4924373;28;128067;-66
2023/04/12 00:04:34;;;;;;;;;;;;;;;14.38;39.77;100378.59;4950753;28;126998;-68
2023/04/12 00:07:01;;;;;;;;;;;;;;;14.36;40.22;100361.78;4953951;28;97965;-66
2023/04/12 00:09:30;;;;;;;;;;;;;;;14.35;39.89;100370.25;4934859;28;98657;-66
2023/04/12 00:11:57;;;;;;;;;;;;;;;14.33;39.81;100367.81;4940485;28;100013;-68
2023/04/12 00:14:24;;;;;;;;;;;;;;;14.30;40.08;100367.59;4951557;28;98076;-68
2023/04/12 00:16:50;;;;;;;;;;;;;;;14.28;40.11;100362.47;4950986;28;97754;-66
2023/04/12 00:19:16;;;;;;;;;;;;;;;14.25;40.13;100347.59;4951660;28;99238;-66
2023/04/12 00:21:42;;;;;;;;;;;;;;;14.23;40.20;100349.81;4949965;28;98507;-67
2023/04/12 00:24:08;;;;;;;;;;;;;;;14.21;40.27;100351.19;4951763;28;98098;-68
2023/04/12 00:26:34;;;;;;;;;;;;;;;14.20;39.81;100357.72;4953084;28;121855;-68
2023/04/12 00:29:00;;;;;;;;;;;;;;;14.18;40.18;100338.22;4951800;28;98399;-66
2023/04/12 00:31:26;;;;;;;;;;;;;;;14.15;39.84;100347.75;4952059;28;98199;-66
2023/04/12 00:33:52;;;;;;;;;;;;;;;14.13;40.15;100344.53;4949781;28;128183;-66
2023/04/12 00:36:18;;;;;;;;;;;;;;;14.12;39.77;100340.22;4951321;28;121864;-66
2023/04/12 00:38:47;;;;;;;;;;;;;;;14.10;39.83;100336.16;4951756;28;116666;-68
2023/04/12 00:41:13;;;;;;;;;;;;;;;14.08;39.78;100333.75;4951248;28;99615;-68
2023/04/12 00:43:40;;;;;;;;;;;;;;;14.06;40.06;100332.44;4937595;28;99255;-66
2023/04/12 00:46:06;;;;;;;;;;;;;;;14.03;40.12;100325.72;4954238;28;98115;-68
2023/04/12 00:48:32;;;;;;;;;;;;;;;14.01;40.19;100333.31;4919296;28;127863;-66
2023/04/12 00:50:59;;;;;;;;;;;;;;;14.00;40.09;100334.44;4954785;28;115526;-68
2023/04/12 00:53:26;;;;;;;;;;;;;;;13.96;39.79;100331.50;4952628;28;98104;-67
2023/04/12 00:55:51;;;;;;;;;;;;;;;13.95;39.86;100331.75;4952734;28;97827;-66
2023/04/12 00:58:17;;;;;;;;;;;;;;;13.92;39.79;100327.75;4933945;28;129577;-69
2023/04/12 01:00:48;;;;;;;;;;;;;;;13.91;40.17;100331.56;4950531;28;128077;-67
2023/04/12 01:03:21;;;;;;;;;;;;;;;13.90;40.13;100326.44;4949379;28;98376;-68
2023/04/12 01:06:03;;;;;;;;;;;;;;;13.87;40.14;100318.88;4951766;28;98202;-66
2023/04/12 01:08:52;;;;;;;;;;;;;;;13.83;39.89;100324.06;4952567;28;98435;-68
2023/04/12 01:11:35;;;;;;;;;;;;;;;13.82;40.18;100318.97;4970758;27;98128;-66
2023/04/12 01:14:08;;;;;;;;;;;;;;;13.80;39.83;100321.16;4952395;27;127958;-68
2023/04/12 01:16:49;;;;;;;;;;;;;;;13.77;39.86;100319.03;4955637;27;122887;-66
2023/04/12 01:19:56;;;;;;;;;;;;;;;13.75;39.99;100314.72;4938301;28;98444;-66
2023/04/12 01:22:48;;;;;;;;;;;;;;;13.71;40.03;100310.97;4950105;28;98854;-68
2023/04/12 01:25:39;;;;;;;;;;;;;;;13.69;39.79;100315.88;4963787;27;98136;-68
2023/04/12 01:28:09;;;;;;;;;;;;;;;13.68;40.24;100299.94;4951432;27;98241;-66
2023/04/12 01:30:35;;;;;;;;;;;;;;;13.64;40.14;100288.06;4952248;27;98514;-68
2023/04/12 01:33:02;;;;;;;;;;;;;;;13.64;39.77;100291.56;4970478;27;126884;-66
2023/04/12 01:35:30;;;;;;;;;;;;;;;13.61;39.84;100289.44;4939202;27;98246;-68
2023/04/12 01:37:57;;;;;;;;;;;;;;;13.59;40.23;100291.63;4971687;27;98049;-66
2023/04/12 01:40:23;;;;;;;;;;;;;;;13.58;40.22;100281.09;4971628;27;98880;-66
2023/04/12 01:42:49;;;;;;;;;;;;;;;13.57;40.11;100280.28;4950860;27;99461;-66
2023/04/12 01:45:15;;;;;;;;;;;;;;;13.54;39.84;100274.66;4970060;27;98648;-68
2023/04/12 01:47:41;;;;;;;;;;;;;;;13.51;40.17;100271.41;4972350;27;99367;-66
2023/04/12 01:50:44;;;;;;;;;;;;;;;13.50;39.95;100271.72;4952499;27;126482;-66
2023/04/12 01:53:26;;;;;;;;;;;;;;;13.48;39.87;100271.22;4924533;27;98383;-66
2023/04/12 01:55:52;;;;;;;;;;;;;;;13.46;40.05;100271.50;4970396;27;98195;-68
2023/04/12 01:58:20;;;;;;;;;;;;;;;13.45;39.87;100269.88;4954361;28;98348;-66
2023/04/12 02:00:46;;;;;;;;;;;;;;;13.44;39.85;100268.28;4932739;27;98784;-66
2023/04/12 02:03:12;;;;;;;;;;;;;;;13.41;39.84;100263.44;4953998;27;98463;-66
2023/04/12 02:05:38;;;;;;;;;;;;;;;13.40;39.83;100264.56;4956080;28;98127;-67
2023/04/12 02:08:04;;;;;;;;;;;;;;;13.38;40.02;100258.59;4970127;27;98041;-68
2023/04/12 02:10:30;;;;;;;;;;;;;;;13.37;39.86;100262.41;4941117;28;126631;-66
2023/04/12 02:13:00;;;;;;;;;;;;;;;13.36;39.79;100263.53;4955069;27;98821;-65
2023/04/12 02:15:27;;;;;;;;;;;;;;;13.34;39.94;100260.28;4969204;27;98158;-68
2023/04/12 02:17:53;;;;;;;;;;;;;;;13.33;40.04;100252.47;4969417;27;97922;-68
2023/04/12 02:20:25;;;;;;;;;;;;;;;13.30;39.77;100250.34;4969271;27;98145;-68
2023/04/12 02:22:52;;;;;;;;;;;;;;;13.27;39.68;100238.97;4970973;27;99104;-68
2023/04/12 02:25:18;;;;;;;;;;;;;;;13.26;40.07;100245.50;4970822;27;98046;-66
2023/04/12 02:27:45;;;;;;;;;;;;;;;13.25;40.05;100230.34;4969787;27;97969;-68
2023/04/12 02:30:11;;;;;;;;;;;;;;;13.24;39.95;100233.34;4969922;27;98247;-68
2023/04/12 02:32:42;;;;;;;;;;;;;;;13.22;40.06;100225.47;4971703;27;99074;-68
2023/04/12 02:35:12;;;;;;;;;;;;;;;13.20;39.86;100225.00;4953222;27;99193;-65
2023/04/12 02:37:38;;;;;;;;;;;;;;;13.17;39.84;100220.16;4967550;27;98054;-68
2023/04/12 02:40:05;;;;;;;;;;;;;;;13.17;39.83;100222.06;4968901;27;98349;-68
2023/04/12 02:42:32;;;;;;;;;;;;;;;13.14;39.62;100211.81;4972480;27;98783;-68
2023/04/12 02:44:58;;;;;;;;;;;;;;;13.13;40.02;100212.91;4969742;27;98085;-65
2023/04/12 02:47:27;;;;;;;;;;;;;;;13.09;39.82;100209.16;4969784;27;100158;-68
2023/04/12 02:49:53;;;;;;;;;;;;;;;13.09;39.92;100204.56;4969716;27;99323;-66
2023/04/12 02:52:19;;;;;;;;;;;;;;;13.08;40.03;100204.84;4970757;27;99251;-68
2023/04/12 02:54:45;;;;;;;;;;;;;;;13.06;39.91;100204.34;4948487;27;100543;-66
2023/04/12 02:57:11;;;;;;;;;;;;;;;13.04;39.99;100201.91;4949604;27;122061;-68
2023/04/12 02:59:38;;;;;;;;;;;;;;;13.02;40.06;100196.78;4967827;27;127599;-67
2023/04/12 03:02:04;;;;;;;;;;;;;;;13.01;39.99;100202.50;4970586;27;99659;-68
2023/04/12 03:04:30;;;;;;;;;;;;;;;12.99;39.99;100199.25;4969369;27;98008;-68
2023/04/12 03:06:56;;;;;;;;;;;;;;;12.96;40.04;100197.94;4967447;27;122389;-65
2023/04/12 03:09:22;;;;;;;;;;;;;;;12.95;39.96;100198.22;4966183;27;98315;-66
2023/04/12 03:11:48;;;;;;;;;;;;;;;12.92;39.88;100196.91;4968682;27;98774;-66
2023/04/12 03:14:14;;;;;;;;;;;;;;;12.90;39.93;100190.19;4964867;27;126217;-68
2023/04/12 03:16:40;;;;;;;;;;;;;;;12.89;39.93;100188.56;4946804;28;122370;-68
2023/04/12 03:19:06;;;;;;;;;;;;;;;12.87;39.83;100177.22;4969234;27;107667;-65
2023/04/12 03:21:32;;;;;;;;;;;;;;;12.86;39.98;100179.13;4969002;27;99466;-68
2023/04/12 03:23:58;;;;;;;;;;;;;;;12.84;40.03;100175.91;4966910;27;125515;-68
2023/04/12 03:26:26;;;;;;;;;;;;;;;12.81;40.03;100176.50;4949517;28;115798;-66
2023/04/12 03:29:00;;;;;;;;;;;;;;;12.81;39.91;100172.97;4969460;27;99192;-68
2023/04/12 03:31:26;;;;;;;;;;;;;;;12.79;39.97;100181.38;4968206;27;98169;-65
2023/04/12 03:33:52;;;;;;;;;;;;;;;12.77;39.84;100172.72;4968150;27;97856;-68
2023/04/12 03:36:20;;;;;;;;;;;;;;;12.75;39.93;100177.63;4968874;27;98081;-65
2023/04/12 03:38:46;;;;;;;;;;;;;;;12.73;39.96;100175.25;4963245;27;99523;-68
2023/04/12 03:41:12;;;;;;;;;;;;;;;12.72;40.09;100178.22;4968161;27;128186;-66
2023/04/12 03:43:38;;;;;;;;;;;;;;;12.70;39.96;100173.09;4971625;27;97968;-69
2023/04/12 03:46:04;;;;;;;;;;;;;;;12.69;40.09;100170.66;4970683;27;98359;-67
2023/04/12 03:48:30;;;;;;;;;;;;;;;12.68;39.94;100166.38;4950113;27;98150;-69
2023/04/12 03:50:58;;;;;;;;;;;;;;;12.67;39.97;100167.47;4950514;27;125791;-67
2023/04/12 03:53:26;;;;;;;;;;;;;;;12.62;39.98;100154.81;4968680;27;97940;-65
2023/04/12 03:55:52;;;;;;;;;;;;;;;12.62;39.82;100154.81;4967276;27;97971;-66
2023/04/12 03:58:19;;;;;;;;;;;;;;;12.61;39.90;100155.88;4966538;27;99006;-67
2023/04/12 04:00:45;;;;;;;;;;;;;;;12.60;39.87;100146.16;4970264;27;111523;-67
2023/04/12 04:03:11;;;;;;;;;;;;;;;12.58;39.96;100148.38;4935697;27;98240;-64
2023/04/12 04:05:37;;;;;;;;;;;;;;;12.58;40.08;100148.38;4949445;28;122694;-67
2023/04/12 04:08:05;;;;;;;;;;;;;;;12.57;39.87;100146.72;4968997;27;118288;-65
2023/04/12 04:10:31;;;;;;;;;;;;;;;12.54;39.84;100144.63;4970563;27;100542;-67
2023/04/12 04:12:57;;;;;;;;;;;;;;;12.54;39.88;100141.94;4954283;27;127850;-67
2023/04/12 04:15:25;;;;;;;;;;;;;;;12.53;39.99;100138.41;4972712;27;121401;-67
2023/04/12 04:17:51;;;;;;;;;;;;;;;12.53;39.87;100137.59;4945964;27;108279;-65
2023/04/12 04:20:17;;;;;;;;;;;;;;;12.51;39.85;100126.28;4972322;27;98751;-68
2023/04/12 04:22:52;;;;;;;;;;;;;;;12.51;39.84;100124.38;4971288;27;98359;-66
2023/04/12 04:25:18;;;;;;;;;;;;;;;12.51;40.08;100124.38;4954604;27;98053;-66
2023/04/12 04:27:44;;;;;;;;;;;;;;;12.51;40.03;100127.06;4971018;27;98328;-66
2023/04/12 04:30:11;;;;;;;;;;;;;;;12.51;40.01;100121.66;4971623;27;98774;-68
2023/04/12 04:32:37;;;;;;;;;;;;;;;12.50;39.79;100125.47;4971399;27;98083;-68
2023/04/12 04:35:04;;;;;;;;;;;;;;;12.51;39.78;100128.97;4970060;27;100130;-68
2023/04/12 04:37:30;;;;;;;;;;;;;;;12.50;39.67;100122.78;4970326;27;128441;-69
2023/04/12 04:39:56;;;;;;;;;;;;;;;12.51;39.84;100113.56;4967999;27;121598;-68
2023/04/12 04:42:23;;;;;;;;;;;;;;;12.52;39.80;100115.16;4969538;27;127704;-68
2023/04/12 04:45:01;;;;;;;;;;;;;;;12.52;39.84;100115.16;4970003;27;98021;-65
2023/04/12 04:47:29;;;;;;;;;;;;;;;12.52;39.79;100108.97;4967745;27;98816;-68
2023/04/12 04:49:56;;;;;;;;;;;;;;;12.56;39.93;100112.69;4965866;27;98974;-66
2023/04/12 04:52:22;;;;;;;;;;;;;;;12.57;39.75;100100.78;4967039;27;98669;-66
2023/04/12 04:54:48;;;;;;;;;;;;;;;12.60;39.77;100110.22;4966777;27;98002;-66
2023/04/12 04:57:14;;;;;;;;;;;;;;;12.62;39.93;100116.16;4966467;27;129068;-66
2023/04/12 04:59:40;;;;;;;;;;;;;;;12.66;39.76;100109.88;4965671;27;128439;-66
2023/04/12 05:02:06;;;;;;;;;;;;;;;12.67;39.90;100108.78;4966430;27;125327;-66
2023/04/12 05:04:32;;;;;;;;;;;;;;;12.71;39.43;100117.91;4965582;27;100437;-67
2023/04/12 05:06:58;;;;;;;;;;;;;;;12.75;39.67;100118.16;4967898;27;128482;-66
2023/04/12 05:09:24;;;;;;;;;;;;;;;12.78;39.59;100112.16;4966460;27;99389;-66
2023/04/12 05:11:50;;;;;;;;;;;;;;;12.82;39.62;100118.59;4968999;27;104261;-68
2023/04/12 05:14:16;;;;;;;;;;;;;;;12.87;39.57;100115.03;4969108;27;98120;-66
2023/04/12 05:16:42;;;;;;;;;;;;;;;12.91;39.51;100119.56;4966375;27;128160;-66
2023/04/12 05:19:08;;;;;;;;;;;;;;;12.94;39.45;100116.28;4966272;27;126138;-68
2023/04/12 05:21:34;;;;;;;;;;;;;;;12.98;39.62;100109.19;4954552;28;101454;-69
2023/04/12 05:24:00;;;;;;;;;;;;;;;13.04;39.46;100112.59;4949954;27;120608;-68
2023/04/12 05:26:26;;;;;;;;;;;;;;;13.08;39.54;100102.81;4950273;28;99730;-68
2023/04/12 05:28:52;;;;;;;;;;;;;;;13.13;39.52;100097.34;4948995;27;99028;-69
2023/04/12 05:31:18;;;;;;;;;;;;;;;13.19;39.36;100098.06;4965418;27;125175;-68
2023/04/12 05:33:44;;;;;;;;;;;;;;;13.24;39.40;100095.31;4969367;27;121307;-66
2023/04/12 05:36:10;;;;;;;;;;;;;;;13.30;39.26;100083.31;4968262;27;129561;-66
2023/04/12 05:38:36;;;;;;;;;;;;;;;13.38;39.49;100082.63;4966191;27;129024;-68
2023/04/12 05:41:03;;;;;;;;;;;;;;;13.45;39.37;100076.84;4967445;27;127559;-65
2023/04/12 05:43:29;;;;;;;;;;;;;;;13.51;39.50;100072.94;4966160;27;101143;-66
2023/04/12 05:45:55;;;;;;;;;;;;;;;13.57;39.47;100070.97;4969048;27;99051;-69
2023/04/12 05:48:21;;;;;;;;;;;;;;;13.64;39.08;100071.41;4966226;27;128687;-66
2023/04/12 05:50:51;;;;;;;;;;;;;;;13.71;39.06;100066.38;4966421;27;99093;-66
2023/04/12 05:53:17;;;;;;;;;;;;;;;13.79;39.06;100056.78;4969126;27;99086;-66
2023/04/12 05:55:43;;;;;;;;;;;;;;;13.88;39.01;100050.38;4965875;27;99130;-66
2023/04/12 05:58:09;;;;;;;;;;;;;;;13.96;39.33;100049.69;4966068;27;122342;-66
2023/04/12 06:00:35;;;;;;;;;;;;;;;14.07;39.22;100038.63;4963881;27;98158;-66
2023/04/12 06:03:03;;;;;;;;;;;;;;;14.16;39.28;100040.38;4965879;27;98175;-66
2023/04/12 06:05:29;;;;;;;;;;;;;;;14.28;39.20;100028.22;4929549;28;98511;-66
2023/04/12 06:07:55;;;;;;;;;;;;;;;14.40;38.88;100021.16;4914430;27;128266;-67
2023/04/12 06:10:21;;;;;;;;;;;;;;;14.55;38.66;100027.41;4948347;28;128299;-66
2023/04/12 06:12:47;;;;;;;;;;;;;;;14.70;38.64;100024.38;4948515;27;123853;-66
2023/04/12 06:15:13;;;;;;;;;;;;;;;14.87;38.62;100015.56;4964703;27;128297;-66
2023/04/12 06:17:39;;;;;;;;;;;;;;;15.03;38.66;100011.41;4946696;28;99160;-66
2023/04/12 06:20:08;;;;;;;;;;;;;;;15.19;38.43;100003.69;4949996;27;98349;-69
2023/04/12 06:22:35;;;;;;;;;;;;;;;15.37;38.58;100007.31;4968161;27;98213;-67
2023/04/12 06:25:01;;;;;;;;;;;;;;;15.54;38.60;99998.47;4965379;27;106434;-69
2023/04/12 06:27:27;;;;;;;;;;;;;;;15.69;38.72;100001.63;4967205;27;125476;-69
2023/04/12 06:29:53;;;;;;;;;;;;;;;15.87;38.60;99985.38;4967514;27;97949;-70
2023/04/12 06:32:19;;;;;;;;;;;;;;;16.04;38.32;99984.66;4966210;27;97969;-66
2023/04/12 06:34:44;;;;;;;;;;;;;;;16.20;38.28;99978.47;4963739;27;128155;-69
2023/04/12 06:37:10;;;;;;;;;;;;;;;16.38;38.36;99973.84;4963838;27;128068;-66
2023/04/12 06:39:36;;;;;;;;;;;;;;;16.58;38.28;99974.34;4948127;28;127132;-66
2023/04/12 06:42:02;;;;;;;;;;;;;;;16.96;37.98;99960.94;4947043;27;121941;-69
2023/04/12 06:44:28;;;;;;;;;;;;;;;17.34;37.58;99969.22;4949448;27;98388;-67
2023/04/12 06:46:54;;;;;;;;;;;;;;;17.69;37.61;99966.38;4969285;27;127754;-70
2023/04/12 06:49:20;;;;;;;;;;;;;;;17.90;37.57;99963.75;4966324;27;127821;-69
2023/04/12 06:51:46;;;;;;;;;;;;;;;18.03;37.61;99953.72;4966424;27;97815;-67
2023/04/12 06:54:12;;;;;;;;;;;;;;;18.16;37.52;99958.16;4966945;27;109492;-70
2023/04/12 06:56:38;;;;;;;;;;;;;;;18.29;37.68;99957.09;4965083;27;126500;-69
2023/04/12 06:59:04;;;;;;;;;;;;;;;18.35;38.01;99952.25;4962130;27;99437;-67
2023/04/12 07:01:30;;;;;;;;;;;;;;;18.45;37.82;99945.59;4967719;27;121434;-69
2023/04/12 07:03:56;;;;;;;;;;;;;;;18.59;37.73;99943.44;4943700;27;125915;-67
2023/04/12 07:06:22;;;;;;;;;;;;;;;18.71;37.93;99932.59;4967332;27;98754;-69
2023/04/12 07:08:48;;;;;;;;;;;;;;;18.80;38.09;99936.03;4962643;27;128710;-69
2023/04/12 07:11:14;;;;;;;;;;;;;;;18.89;37.83;99938.69;4965380;27;98191;-69
2023/04/12 07:13:40;;;;;;;;;;;;;;;18.98;37.89;99928.50;4963344;27;99656;-67
2023/04/12 07:16:06;;;;;;;;;;;;;;;19.09;38.02;99926.13;4945452;27;126750;-69
2023/04/12 07:18:32;;;;;;;;;;;;;;;19.19;37.90;99916.72;4962062;27;110293;-67
2023/04/12 07:20:58;;;;;;;;;;;;;;;19.29;37.76;99905.34;4967775;27;122226;-67
2023/04/12 07:23:24;;;;;;;;;;;;;;;19.38;37.75;99917.78;4965997;27;128195;-70
2023/04/12 07:25:50;;;;;;;;;;;;;;;19.49;37.69;99915.41;4965567;27;98687;-67
2023/04/12 07:28:17;;;;;;;;;;;;;;;19.63;37.76;99914.28;4947981;27;99219;-68
2023/04/12 07:30:43;;;;;;;;;;;;;;;19.77;37.60;99915.56;4946738;28;119781;-68
2023/04/12 07:33:09;;;;;;;;;;;;;;;19.93;37.61;99902.00;4967581;27;129186;-70
2023/04/12 07:35:35;;;;;;;;;;;;;;;20.16;37.53;99906.94;4963690;27;99217;-67
2023/04/12 07:38:01;;;;;;;;;;;;;;;20.40;37.32;99898.72;4964296;27;125694;-67
2023/04/12 07:40:27;;;;;;;;;;;;;;;20.69;37.11;99889.38;4966755;27;123861;-70
2023/04/12 07:42:53;;;;;;;;;;;;;;;20.97;37.02;99888.56;4947182;27;127305;-68
2023/04/12 07:45:19;;;;;;;;;;;;;;;21.25;36.91;99889.28;4968105;27;99086;-68
2023/04/12 07:47:45;;;;;;;;;;;;;;;21.53;36.76;99883.75;4967746;27;98287;-70
2023/04/12 07:50:12;;;;;;;;;;;;;;;21.83;36.59;99880.53;4968676;27;122709;-70
2023/04/12 07:52:38;;;;;;;;;;;;;;;22.14;36.54;99876.97;4966819;27;116642;-68
2023/04/12 07:55:05;;;;;;;;;;;;;;;22.50;36.47;99863.97;4966543;27;126894;-70
2023/04/12 07:57:31;;;;;;;;;;;;;;;22.91;36.19;99869.88;4952394;28;98492;-71
2023/04/12 07:59:57;;;;;;;;;;;;;;;23.39;35.75;99864.84;4968422;27;99478;-70
2023/04/12 08:02:23;;;;;;;;;;;;;;;23.92;35.64;99859.38;4967420;27;127955;-68
2023/04/12 08:04:55;;;;;;;;;;;;;;;24.54;35.36;99854.31;4951310;27;98191;-71
2023/04/12 08:07:22;;;;;;;;;;;;;;;25.30;34.92;99855.84;4949797;27;127370;-70
2023/04/12 08:09:48;;;;;;;;;;;;;;;26.11;34.56;99855.66;4966968;27;99017;-70
2023/04/12 08:12:14;;;;;;;;;;;;;;;26.93;34.18;99855.94;4971011;27;98331;-67
2023/04/12 08:14:40;;;;;;;;;;;;;;;27.70;34.02;99852.00;4965512;27;99669;-67
2023/04/12 08:17:06;;;;;;;;;;;;;;;28.42;34.00;99850.69;4951114;27;127411;-69
2023/04/12 08:19:33;;;;;;;;;;;;;;;29.22;33.67;99849.00;4968510;27;115127;-67
2023/04/12 08:22:00;;;;;;;;;;;;;;;30.09;32.99;99845.00;4970997;27;98711;-69
2023/04/12 08:24:26;;;;;;;;;;;;;;;30.96;33.06;99829.56;4965568;27;100620;-68
2023/04/12 08:26:52;;;;;;;;;;;;;;;31.84;32.51;99831.25;4967169;27;127676;-68
2023/04/12 08:29:18;;;;;;;;;;;;;;;32.70;32.40;99827.50;4967300;27;99476;-70
2023/04/12 08:31:44;;;;;;;;;;;;;;;33.49;32.27;99814.47;4951160;27;99165;-70
2023/04/12 08:34:10;;;;;;;;;;;;;;;34.33;31.66;99829.28;4945510;27;98192;-70
2023/04/12 08:36:36;;;;;;;;;;;;;;;35.20;31.95;99824.63;4968481;27;98715;-69
2023/04/12 08:39:02;;;;;;;;;;;;;;;36.01;31.69;99807.00;4968061;27;98956;-69
2023/04/12 08:41:28;;;;;;;;;;;;;;;36.81;31.48;99803.47;4968546;27;99267;-69
2023/04/12 08:43:54;;;;;;;;;;;;;;;37.70;30.80;99801.78;4966942;27;99253;-69
2023/04/12 08:46:20;;;;;;;;;;;;;;;38.54;30.82;99792.69;4966269;27;99379;-69
2023/04/12 08:48:47;;;;;;;;;;;;;;;39.27;30.74;99791.53;4949028;27;98048;-69
2023/04/12 08:51:18;;;;;;;;;;;;;;;40.01;30.31;99788.09;4966981;27;98276;-70
2023/04/12 08:53:44;;;;;;;;;;;;;;;40.90;30.24;99780.25;4968157;27;98840;-69
2023/04/12 08:56:10;;;;;;;;;;;;;;;41.67;30.23;99766.81;4967330;27;98785;-69
2023/04/12 08:58:41;;;;;;;;;;;;;;;42.35;29.72;99777.47;4953993;28;98243;-70
2023/04/12 09:01:14;;;;;;;;;;;;;;;43.13;29.71;99765.06;4968671;27;98853;-70
2023/04/12 09:03:43;;;;;;;;;;;;;;;43.95;29.70;99770.72;4964410;27;98956;-70
2023/04/12 09:06:10;;;;;;;;;;;;;;;44.94;29.26;99752.50;4967113;27;98488;-70
2023/04/12 09:08:36;;;;;;;;;;;;;;;45.93;28.70;99751.69;4965903;27;97999;-71
2023/04/12 09:11:11;;;;;;;;;;;;;;;46.47;28.63;99748.88;4970271;27;99285;-71
2023/04/12 09:13:37;;;;;;;;;;;;;;;47.03;28.58;99743.88;4964230;27;117874;-71
2023/04/12 09:16:03;;;;;;;;;;;;;;;47.42;28.96;99737.63;4957373;27;127779;-71
2023/04/12 09:18:29;;;;;;;;;;;;;;;47.98;28.93;99731.03;4967515;27;100228;-72
2023/04/12 09:21:08;;;;;;;;;;;;;;;48.51;28.67;99716.09;4950175;27;124481;-71
2023/04/12 09:23:36;;;;;;;;;;;;;;;48.39;28.88;99716.28;4968356;27;98608;-71
2023/04/12 09:26:03;;;;;;;;;;;;;;;47.74;29.78;99712.00;4967631;27;97973;-71
2023/04/12 09:28:29;;;;;;;;;;;;;;;47.32;30.16;99703.06;4970072;27;98260;-71
2023/04/12 09:30:56;;;;;;;;;;;;;;;47.11;30.73;99696.34;4969514;27;98564;-71
2023/04/12 09:33:36;;;;;;;;;;;;;;;47.11;30.45;99694.25;4970041;27;98326;-71
2023/04/12 09:36:03;;;;;;;;;;;;;;;47.43;30.43;99704.94;4967327;27;98011;-72
2023/04/12 09:38:30;;;;;;;;;;;;;;;47.35;30.36;99678.38;4968201;27;98536;-69
2023/04/12 09:40:56;;;;;;;;;;;;;;;47.29;30.56;99669.88;4966770;27;98763;-69
2023/04/12 09:43:38;;;;;;;;;;;;;;;47.52;30.22;99664.63;4965898;27;127789;-69
2023/04/12 09:46:11;;;;;;;;;;;;;;;47.89;29.75;99657.25;4968678;27;102629;-69
2023/04/12 09:48:38;;;;;;;;;;;;;;;48.41;29.07;99662.25;4966309;27;98264;-69
2023/04/12 09:51:05;;;;;;;;;;;;;;;48.50;29.10;99649.63;4966532;27;98776;-69
2023/04/12 09:53:31;;;;;;;;;;;;;;;48.63;28.99;99634.56;4969857;27;98900;-71
2023/04/12 09:55:57;;;;;;;;;;;;;;;48.75;28.84;99644.41;4934268;27;98349;-72
2023/04/12 09:58:23;;;;;;;;;;;;;;;48.75;28.80;99638.69;4930742;27;104358;-69
2023/04/12 10:00:49;;;;;;;;;;;;;;;48.49;29.22;99628.09;4939960;28;98823;-72
2023/04/12 10:03:15;;;;;;;;;;;;;;;48.18;29.42;99624.03;4950920;27;128146;-72
2023/04/12 10:05:41;;;;;;;;;;;;;;;47.89;29.54;99625.88;4968048;27;122851;-69
2023/04/12 10:08:07;;;;;;;;;;;;;;;47.40;29.87;99615.56;4965049;27;98197;-69
2023/04/12 10:10:33;;;;;;;;;;;;;;;47.22;30.25;99610.63;4951667;28;98295;-69
2023/04/12 10:12:59;;;;;;;;;;;;;;;47.05;30.37;99599.50;4966564;27;129211;-72
2023/04/12 10:15:25;;;;;;;;;;;;;;;47.07;30.26;99590.41;4953872;27;114991;-70
2023/04/12 10:17:52;;;;;;;;;;;;;;;46.90;30.33;99588.56;4949345;28;123097;-72
2023/04/12 10:20:18;;;;;;;;;;;;;;;47.14;30.03;99581.22;4931502;27;98636;-73
2023/04/12 10:22:51;;;;;;;;;;;;;;;47.59;29.55;99572.69;4949030;28;98779;-71
2023/04/12 10:25:18;;;;;;;;;;;;;;;48.19;28.98;99569.25;4953975;27;100061;-69
2023/04/12 10:27:44;;;;;;;;;;;;;;;48.43;28.81;99570.31;4946599;28;102138;-71
2023/04/12 10:30:27;;;;;;;;;;;;;;;48.78;28.67;99565.41;4964707;27;99027;-72
2023/04/12 10:33:02;;;;;;;;;;;;;;;49.17;28.26;99553.06;4966674;27;99064;-69
2023/04/12 10:35:29;;;;;;;;;;;;;;;49.57;28.10;99547.84;4966334;27;98405;-73
2023/04/12 10:37:59;;;;;;;;;;;;;;;49.99;27.91;99539.16;4951902;27;98106;-73
2023/04/12 10:40:25;;;;;;;;;;;;;;;50.07;27.98;99539.19;4964895;27;99171;-73
2023/04/12 10:43:17;;;;;;;;;;;;;;;49.94;28.08;99531.50;4945414;27;99328;-69
2023/04/12 10:45:44;;;;;;;;;;;;;;;49.83;28.20;99532.56;4959987;27;98227;-69
2023/04/12 10:48:35;;;;;;;;;;;;;;;49.65;28.47;99515.69;4967236;27;98557;-72
2023/04/12 10:51:17;;;;;;;;;;;;;;;49.64;28.22;99517.75;4953793;27;98505;-69
2023/04/12 10:53:43;;;;;;;;;;;;;;;49.75;28.44;99505.22;4966822;27;99107;-69
2023/04/12 10:56:28;;;;;;;;;;;;;;;49.81;28.16;99506.59;4965229;27;98276;-72
2023/04/12 10:58:55;;;;;;;;;;;;;;;49.47;28.26;99494.53;4966292;27;98688;-72
2023/04/12 11:01:21;;;;;;;;;;;;;;;49.00;28.50;99486.91;4965535;27;98565;-69
2023/04/12 11:04:06;;;;;;;;;;;;;;;48.70;28.54;99485.31;4965891;27;99267;-69
2023/04/12 11:06:41;;;;;;;;;;;;;;;48.29;28.72;99474.53;4964737;27;98394;-69
2023/04/12 11:09:25;;;;;;;;;;;;;;;47.46;29.31;99475.69;4966609;27;98023;-71
2023/04/12 11:11:56;;;;;;;;;;;;;;;46.56;29.69;99474.31;4969820;27;98544;-71
2023/04/12 11:14:44;;;;;;;;;;;;;;;45.99;29.87;99470.69;4948393;27;98821;-68
2023/04/12 11:17:16;;;;;;;;;;;;;;;45.19;30.61;99455.75;4964635;27;98447;-71
2023/04/12 11:19:47;;;;;;;;;;;;;;;44.53;30.85;99452.91;4968124;27;98191;-71
2023/04/12 11:22:15;;;;;;;;;;;;;;;44.30;30.90;99448.69;4969853;27;124171;-68
2023/04/12 11:24:45;;;;;;;;;;;;;;;44.09;30.96;99462.41;4952607;28;123398;-71
2023/04/12 11:27:11;;;;;;;;;;;;;;;43.89;30.88;99451.44;4970180;27;98623;-70
2023/04/12 11:29:37;;;;;;;;;;;;;;;43.95;30.32;99444.44;4969951;27;123514;-68
2023/04/12 11:32:03;;;;;;;;;;;;;;;44.04;30.09;99446.19;4958144;27;99492;-70
2023/04/12 11:34:33;;;;;;;;;;;;;;;44.01;29.88;99447.25;4970440;27;107520;-68
2023/04/12 11:36:59;;;;;;;;;;;;;;;43.76;30.13;99441.41;4969959;27;98867;-69
2023/04/12 11:39:26;;;;;;;;;;;;;;;43.19;30.38;99431.47;4966229;27;107062;-68
2023/04/12 11:41:51;;;;;;;;;;;;;;;42.79;30.51;99427.88;4971546;27;98653;-68
2023/04/12 11:44:18;;;;;;;;;;;;;;;42.45;30.70;99423.44;4967156;27;125770;-68
2023/04/12 11:46:44;;;;;;;;;;;;;;;41.99;31.04;99427.44;4970814;27;98284;-68
2023/04/12 11:49:15;;;;;;;;;;;;;;;41.43;31.28;99425.88;4966677;27;98374;-68
2023/04/12 11:51:41;;;;;;;;;;;;;;;40.46;32.02;99405.78;4954553;28;98323;-69
2023/04/12 11:54:07;;;;;;;;;;;;;;;39.62;32.42;99404.78;4971077;27;98774;-70
2023/04/12 11:56:33;;;;;;;;;;;;;;;38.92;32.43;99396.31;4971670;27;128308;-70
2023/04/12 11:58:59;;;;;;;;;;;;;;;37.42;33.92;99388.06;4965919;27;122611;-68
2023/04/12 12:01:26;;;;;;;;;;;;;;;36.89;33.74;99382.94;4951169;27;118006;-67
2023/04/12 12:03:52;;;;;;;;;;;;;;;36.75;33.40;99380.81;4951955;28;99137;-69
2023/04/12 12:06:18;;;;;;;;;;;;;;;36.67;33.34;99393.59;4965112;27;127617;-69
2023/04/12 12:08:44;;;;;;;;;;;;;;;36.82;32.99;99386.06;4949907;28;122920;-67
2023/04/12 12:11:10;;;;;;;;;;;;;;;36.93;32.34;99380.72;4954157;27;99302;-68
2023/04/12 12:13:52;;;;;;;;;;;;;;;36.94;32.57;99370.31;4953083;28;99126;-67
2023/04/12 12:16:24;;;;;;;;;;;;;;;36.97;32.17;99378.56;4969810;27;98718;-69
2023/04/12 12:18:49;;;;;;;;;;;;;;;36.84;32.19;99370.31;4966574;27;98081;-68
2023/04/12 12:21:16;;;;;;;;;;;;;;;36.77;32.25;99358.66;4965957;27;128326;-67
2023/04/12 12:23:42;;;;;;;;;;;;;;;36.68;32.24;99353.84;4969834;27;124092;-69
2023/04/12 12:26:08;;;;;;;;;;;;;;;36.56;32.23;99352.81;4956589;27;98017;-69
2023/04/12 12:28:38;;;;;;;;;;;;;;;36.46;32.46;99356.88;4966523;27;122468;-67
2023/04/12 12:31:11;;;;;;;;;;;;;;;36.25;32.53;99355.03;4966237;27;125814;-67
2023/04/12 12:33:39;;;;;;;;;;;;;;;35.86;32.57;99346.31;4967499;27;98579;-69
2023/04/12 12:36:06;;;;;;;;;;;;;;;35.01;33.22;99348.59;4969290;27;98302;-67
2023/04/12 12:38:39;;;;;;;;;;;;;;;34.38;33.29;99336.59;4964341;27;98367;-68
2023/04/12 12:41:23;;;;;;;;;;;;;;;34.10;33.25;99334.84;4966950;27;102385;-69
2023/04/12 12:43:52;;;;;;;;;;;;;;;34.09;33.19;99345.25;4968031;27;98901;-69